This is the latest recevied weather packets stored in our database for station/object KO6LQJ. If no packets are shown the sender has not sent any weather packets the latest 10 day(s).
| Time | Temp. | Humidity | Pressure | Rain* | Wind** | Luminosity | Snow |
|---|---|---|---|---|---|---|---|
| 1777924479 | 20.56° C | 46% | 1017.1 hPa | 0 mm | - | 411 W/m² | - |
| 1777924176 | 20.56° C | 46% | 1017.1 hPa | 0 mm | - | 405 W/m² | - |
| 1777923872 | 20° C | 47% | 1017.2 hPa | 0 mm | - | 323 W/m² | - |
| 1777923568 | 20° C | 49% | 1017.2 hPa | 0 mm | - | 309 W/m² | - |
| 1777923265 | 19.44° C | 49% | 1017.4 hPa | 0 mm | - | 236 W/m² | - |
| 1777922964 | 19.44° C | 49% | 1017.5 hPa | 0 mm | - | 416 W/m² | - |
| 1777922661 | 19.44° C | 50% | 1017.3 hPa | 0 mm | - | 330 W/m² | - |
| 1777922360 | 19.44° C | 49% | 1017.4 hPa | 0 mm | - | 369 W/m² | - |
| 1777922058 | 19.44° C | 50% | 1017.5 hPa | 0 mm | - | 345 W/m² | - |
| 1777921752 | 20° C | 49% | 1017.4 hPa | 0 mm | - | 340 W/m² | - |
| 1777921448 | 18.33° C | 52% | 1017.6 hPa | 0 mm | - | 725 W/m² | - |
| 1777921145 | 17.78° C | 54% | 1017.7 hPa | 0 mm | - | 321 W/m² | - |
| 1777920843 | 17.22° C | 56% | 1017.7 hPa | 0 mm | - | 184 W/m² | - |
| 1777920538 | 16.67° C | 57% | 1017.7 hPa | 0 mm | - | 148 W/m² | - |
| 1777920234 | 16.67° C | 57% | 1017.6 hPa | 0 mm | - | 98 W/m² | - |
| 1777919930 | 17.22° C | 59% | 1017.7 hPa | 0 mm | - | 64 W/m² | - |
| 1777919628 | 17.22° C | 56% | 1017.5 hPa | 0 mm | - | 58 W/m² | - |
| 1777919325 | 17.22° C | 55% | 1017.5 hPa | 0 mm | - | 57 W/m² | - |
| 1777919023 | 17.22° C | 55% | 1017.4 hPa | 0 mm | - | 53 W/m² | - |
| 1777918719 | 17.22° C | 56% | 1017.5 hPa | 0 mm | - | 66 W/m² | - |
| 1777918417 | 17.22° C | 55% | 1017.6 hPa | 0 mm | - | 74 W/m² | - |
| 1777918116 | 17.78° C | 54% | 1017.7 hPa | 0 mm | - | 117 W/m² | - |
| 1777917814 | 17.22° C | 56% | 1017.6 hPa | 0 mm | - | 152 W/m² | - |
| 1777917512 | 17.22° C | 57% | 1017.5 hPa | 0 mm | - | 114 W/m² | - |
| 1777917208 | 17.22° C | 57% | 1017.6 hPa | 0 mm | - | 60 W/m² | - |
* Rain latest hour (hover to see other rain measurements)
** Current wind speed in m/s (hover to see current wind gust speed)